sensor_id;sensor_type;location;lat;lon;timestamp;P1;durP1;ratioP1;P2;durP2;ratioP2
16669;SDS011;8448;52.034;5.158;2023-10-31T00:01:12;14.23;;;6.90;;
16669;SDS011;8448;52.034;5.158;2023-10-31T00:03:40;14.10;;;8.23;;
16669;SDS011;8448;52.034;5.158;2023-10-31T00:06:07;14.20;;;8.67;;
16669;SDS011;8448;52.034;5.158;2023-10-31T00:08:35;14.20;;;8.67;;
16669;SDS011;8448;52.034;5.158;2023-10-31T00:11:04;16.33;;;10.03;;
16669;SDS011;8448;52.034;5.158;2023-10-31T00:13:31;16.70;;;10.40;;
16669;SDS011;8448;52.034;5.158;2023-10-31T00:15:58;16.77;;;10.17;;
16669;SDS011;8448;52.034;5.158;2023-10-31T00:18:26;16.13;;;10.50;;
16669;SDS011;8448;52.034;5.158;2023-10-31T00:20:53;14.43;;;9.80;;
16669;SDS011;8448;52.034;5.158;2023-10-31T00:23:21;15.13;;;10.37;;
16669;SDS011;8448;52.034;5.158;2023-10-31T00:25:49;15.87;;;9.10;;
16669;SDS011;8448;52.034;5.158;2023-10-31T00:28:17;13.07;;;8.40;;
16669;SDS011;8448;52.034;5.158;2023-10-31T00:30:45;13.27;;;7.53;;
16669;SDS011;8448;52.034;5.158;2023-10-31T00:33:13;12.67;;;6.57;;
16669;SDS011;8448;52.034;5.158;2023-10-31T00:35:40;11.47;;;6.20;;
16669;SDS011;8448;52.034;5.158;2023-10-31T00:38:07;10.50;;;6.13;;
16669;SDS011;8448;52.034;5.158;2023-10-31T00:40:35;11.63;;;5.53;;
16669;SDS011;8448;52.034;5.158;2023-10-31T00:43:02;10.57;;;5.33;;
16669;SDS011;8448;52.034;5.158;2023-10-31T00:45:31;8.80;;;4.83;;
16669;SDS011;8448;52.034;5.158;2023-10-31T00:47:58;8.93;;;4.33;;
16669;SDS011;8448;52.034;5.158;2023-10-31T00:50:26;10.57;;;4.70;;
16669;SDS011;8448;52.034;5.158;2023-10-31T00:52:54;9.13;;;4.20;;
16669;SDS011;8448;52.034;5.158;2023-10-31T00:55:21;9.17;;;4.70;;
16669;SDS011;8448;52.034;5.158;2023-10-31T00:57:49;7.77;;;4.60;;
16669;SDS011;8448;52.034;5.158;2023-10-31T01:00:16;9.97;;;5.50;;
16669;SDS011;8448;52.034;5.158;2023-10-31T01:02:45;9.97;;;5.10;;
16669;SDS011;8448;52.034;5.158;2023-10-31T01:05:13;15.73;;;6.97;;
16669;SDS011;8448;52.034;5.158;2023-10-31T01:07:40;12.47;;;7.00;;
16669;SDS011;8448;52.034;5.158;2023-10-31T01:10:07;15.00;;;7.43;;
16669;SDS011;8448;52.034;5.158;2023-10-31T01:12:36;15.20;;;8.30;;
16669;SDS011;8448;52.034;5.158;2023-10-31T01:15:04;17.50;;;9.53;;
16669;SDS011;8448;52.034;5.158;2023-10-31T01:17:32;16.57;;;8.80;;
16669;SDS011;8448;52.034;5.158;2023-10-31T01:20:01;19.13;;;10.50;;
16669;SDS011;8448;52.034;5.158;2023-10-31T01:22:28;17.60;;;9.70;;
16669;SDS011;8448;52.034;5.158;2023-10-31T01:24:56;21.37;;;11.37;;
16669;SDS011;8448;52.034;5.158;2023-10-31T01:27:23;21.33;;;11.97;;
16669;SDS011;8448;52.034;5.158;2023-10-31T01:29:50;20.80;;;11.67;;
16669;SDS011;8448;52.034;5.158;2023-10-31T01:32:18;22.90;;;12.20;;
16669;SDS011;8448;52.034;5.158;2023-10-31T01:34:45;22.97;;;13.03;;
16669;SDS011;8448;52.034;5.158;2023-10-31T01:37:14;23.50;;;12.80;;
16669;SDS011;8448;52.034;5.158;2023-10-31T01:39:44;22.70;;;12.53;;
16669;SDS011;8448;52.034;5.158;2023-10-31T01:42:13;20.80;;;12.00;;
16669;SDS011;8448;52.034;5.158;2023-10-31T01:44:41;20.20;;;11.47;;
16669;SDS011;8448;52.034;5.158;2023-10-31T01:47:08;20.60;;;10.63;;
16669;SDS011;8448;52.034;5.158;2023-10-31T01:49:36;18.80;;;10.13;;
16669;SDS011;8448;52.034;5.158;2023-10-31T01:52:03;15.17;;;8.83;;
16669;SDS011;8448;52.034;5.158;2023-10-31T01:54:33;15.00;;;8.27;;
16669;SDS011;8448;52.034;5.158;2023-10-31T01:57:00;12.80;;;6.93;;
16669;SDS011;8448;52.034;5.158;2023-10-31T01:59:28;13.13;;;7.50;;
16669;SDS011;8448;52.034;5.158;2023-10-31T02:01:55;16.23;;;7.50;;
16669;SDS011;8448;52.034;5.158;2023-10-31T02:04:24;11.20;;;6.93;;
16669;SDS011;8448;52.034;5.158;2023-10-31T02:06:51;13.10;;;7.00;;
16669;SDS011;8448;52.034;5.158;2023-10-31T02:09:20;12.50;;;6.63;;
16669;SDS011;8448;52.034;5.158;2023-10-31T02:11:51;16.43;;;7.60;;
16669;SDS011;8448;52.034;5.158;2023-10-31T02:14:18;11.80;;;7.03;;
16669;SDS011;8448;52.034;5.158;2023-10-31T02:16:46;16.13;;;8.07;;
16669;SDS011;8448;52.034;5.158;2023-10-31T02:19:13;14.50;;;8.53;;
16669;SDS011;8448;52.034;5.158;2023-10-31T02:21:46;15.97;;;9.17;;
16669;SDS011;8448;52.034;5.158;2023-10-31T02:24:13;18.40;;;10.27;;
16669;SDS011;8448;52.034;5.158;2023-10-31T02:26:41;18.70;;;10.80;;
16669;SDS011;8448;52.034;5.158;2023-10-31T02:29:08;18.20;;;11.10;;
16669;SDS011;8448;52.034;5.158;2023-10-31T02:31:35;19.73;;;10.80;;
16669;SDS011;8448;52.034;5.158;2023-10-31T02:34:03;15.67;;;10.40;;
16669;SDS011;8448;52.034;5.158;2023-10-31T02:36:31;19.77;;;10.57;;
16669;SDS011;8448;52.034;5.158;2023-10-31T02:39:00;16.17;;;9.60;;
16669;SDS011;8448;52.034;5.158;2023-10-31T02:41:27;17.23;;;10.37;;
16669;SDS011;8448;52.034;5.158;2023-10-31T02:43:55;16.63;;;9.53;;
16669;SDS011;8448;52.034;5.158;2023-10-31T02:46:22;17.07;;;10.27;;
16669;SDS011;8448;52.034;5.158;2023-10-31T02:48:50;15.80;;;9.67;;
16669;SDS011;8448;52.034;5.158;2023-10-31T02:51:17;15.33;;;9.57;;
16669;SDS011;8448;52.034;5.158;2023-10-31T02:53:44;16.00;;;9.17;;
16669;SDS011;8448;52.034;5.158;2023-10-31T02:56:13;15.83;;;8.90;;
16669;SDS011;8448;52.034;5.158;2023-10-31T02:58:41;15.27;;;8.70;;
16669;SDS011;8448;52.034;5.158;2023-10-31T03:01:08;14.03;;;8.70;;
16669;SDS011;8448;52.034;5.158;2023-10-31T03:03:35;12.47;;;7.83;;
16669;SDS011;8448;52.034;5.158;2023-10-31T03:06:04;15.40;;;7.50;;
16669;SDS011;8448;52.034;5.158;2023-10-31T03:08:31;15.43;;;7.50;;
16669;SDS011;8448;52.034;5.158;2023-10-31T03:10:59;14.63;;;8.00;;
16669;SDS011;8448;52.034;5.158;2023-10-31T03:13:27;12.77;;;7.60;;
16669;SDS011;8448;52.034;5.158;2023-10-31T03:15:55;13.70;;;7.83;;
16669;SDS011;8448;52.034;5.158;2023-10-31T03:18:23;13.70;;;7.77;;
16669;SDS011;8448;52.034;5.158;2023-10-31T03:20:51;11.80;;;7.20;;
16669;SDS011;8448;52.034;5.158;2023-10-31T03:23:18;13.20;;;6.73;;
16669;SDS011;8448;52.034;5.158;2023-10-31T03:25:46;10.20;;;6.30;;
16669;SDS011;8448;52.034;5.158;2023-10-31T03:28:19;10.30;;;5.87;;
16669;SDS011;8448;52.034;5.158;2023-10-31T03:30:50;8.80;;;5.57;;
16669;SDS011;8448;52.034;5.158;2023-10-31T03:33:17;9.17;;;4.93;;
16669;SDS011;8448;52.034;5.158;2023-10-31T03:35:45;8.77;;;4.90;;
16669;SDS011;8448;52.034;5.158;2023-10-31T03:38:12;9.17;;;5.00;;
16669;SDS011;8448;52.034;5.158;2023-10-31T03:40:40;12.47;;;4.93;;
16669;SDS011;8448;52.034;5.158;2023-10-31T03:43:08;10.87;;;5.60;;
16669;SDS011;8448;52.034;5.158;2023-10-31T03:45:35;10.00;;;5.70;;
16669;SDS011;8448;52.034;5.158;2023-10-31T03:48:04;11.17;;;6.27;;
16669;SDS011;8448;52.034;5.158;2023-10-31T03:50:31;14.73;;;7.17;;
16669;SDS011;8448;52.034;5.158;2023-10-31T03:52:59;11.40;;;6.17;;
16669;SDS011;8448;52.034;5.158;2023-10-31T03:55:26;11.13;;;6.20;;
16669;SDS011;8448;52.034;5.158;2023-10-31T03:57:55;9.20;;;5.17;;
16669;SDS011;8448;52.034;5.158;2023-10-31T04:00:21;8.10;;;4.47;;
16669;SDS011;8448;52.034;5.158;2023-10-31T04:02:49;7.03;;;3.90;;
16669;SDS011;8448;52.034;5.158;2023-10-31T04:05:17;7.50;;;3.50;;
16669;SDS011;8448;52.034;5.158;2023-10-31T04:07:47;5.73;;;3.13;;
16669;SDS011;8448;52.034;5.158;2023-10-31T04:10:14;6.00;;;2.77;;
16669;SDS011;8448;52.034;5.158;2023-10-31T04:12:42;2.10;;;1.50;;
16669;SDS011;8448;52.034;5.158;2023-10-31T04:15:09;2.40;;;1.30;;
16669;SDS011;8448;52.034;5.158;2023-10-31T04:17:36;3.13;;;1.40;;
16669;SDS011;8448;52.034;5.158;2023-10-31T04:20:04;3.13;;;1.53;;
16669;SDS011;8448;52.034;5.158;2023-10-31T04:22:34;3.67;;;2.10;;
16669;SDS011;8448;52.034;5.158;2023-10-31T04:25:01;5.17;;;2.90;;
16669;SDS011;8448;52.034;5.158;2023-10-31T04:27:29;6.43;;;3.07;;
16669;SDS011;8448;52.034;5.158;2023-10-31T04:29:56;5.27;;;2.90;;
16669;SDS011;8448;52.034;5.158;2023-10-31T04:32:23;3.87;;;2.60;;
16669;SDS011;8448;52.034;5.158;2023-10-31T04:34:51;2.87;;;2.13;;
16669;SDS011;8448;52.034;5.158;2023-10-31T04:37:18;4.70;;;2.20;;
16669;SDS011;8448;52.034;5.158;2023-10-31T04:39:47;2.30;;;1.60;;
16669;SDS011;8448;52.034;5.158;2023-10-31T04:42:14;1.50;;;1.30;;
16669;SDS011;8448;52.034;5.158;2023-10-31T04:44:41;1.77;;;1.13;;
16669;SDS011;8448;52.034;5.158;2023-10-31T04:47:09;2.47;;;1.40;;
16669;SDS011;8448;52.034;5.158;2023-10-31T04:49:36;2.57;;;1.30;;
16669;SDS011;8448;52.034;5.158;2023-10-31T04:52:04;2.83;;;1.50;;
16669;SDS011;8448;52.034;5.158;2023-10-31T04:54:31;1.60;;;1.13;;
16669;SDS011;8448;52.034;5.158;2023-10-31T04:57:00;2.57;;;1.40;;
16669;SDS011;8448;52.034;5.158;2023-10-31T04:59:29;2.93;;;1.67;;
16669;SDS011;8448;52.034;5.158;2023-10-31T05:01:57;3.27;;;2.07;;
16669;SDS011;8448;52.034;5.158;2023-10-31T05:04:25;4.83;;;2.17;;
16669;SDS011;8448;52.034;5.158;2023-10-31T05:06:52;6.17;;;2.90;;
16669;SDS011;8448;52.034;5.158;2023-10-31T05:09:19;4.33;;;2.77;;
16669;SDS011;8448;52.034;5.158;2023-10-31T05:11:48;7.87;;;3.70;;
16669;SDS011;8448;52.034;5.158;2023-10-31T05:14:17;7.87;;;3.90;;
16669;SDS011;8448;52.034;5.158;2023-10-31T05:16:44;8.10;;;4.47;;
16669;SDS011;8448;52.034;5.158;2023-10-31T05:19:11;5.80;;;4.20;;
16669;SDS011;8448;52.034;5.158;2023-10-31T05:21:39;6.90;;;4.70;;
16669;SDS011;8448;52.034;5.158;2023-10-31T05:24:07;8.87;;;5.07;;
16669;SDS011;8448;52.034;5.158;2023-10-31T05:26:34;8.70;;;5.07;;
16669;SDS011;8448;52.034;5.158;2023-10-31T05:29:02;9.60;;;5.57;;
16669;SDS011;8448;52.034;5.158;2023-10-31T05:31:30;9.07;;;5.20;;
16669;SDS011;8448;52.034;5.158;2023-10-31T05:33:58;7.70;;;4.83;;
16669;SDS011;8448;52.034;5.158;2023-10-31T05:36:25;7.17;;;5.23;;
16669;SDS011;8448;52.034;5.158;2023-10-31T05:38:53;8.17;;;4.97;;
16669;SDS011;8448;52.034;5.158;2023-10-31T05:41:20;6.87;;;3.93;;
16669;SDS011;8448;52.034;5.158;2023-10-31T05:43:48;5.90;;;3.80;;
16669;SDS011;8448;52.034;5.158;2023-10-31T05:46:15;5.70;;;3.20;;
16669;SDS011;8448;52.034;5.158;2023-10-31T05:48:46;5.13;;;2.80;;
16669;SDS011;8448;52.034;5.158;2023-10-31T05:51:16;5.77;;;2.63;;
16669;SDS011;8448;52.034;5.158;2023-10-31T05:53:45;3.63;;;2.20;;
16669;SDS011;8448;52.034;5.158;2023-10-31T05:56:13;3.07;;;2.03;;
16669;SDS011;8448;52.034;5.158;2023-10-31T05:58:41;2.83;;;1.70;;
16669;SDS011;8448;52.034;5.158;2023-10-31T06:01:09;3.43;;;1.60;;
16669;SDS011;8448;52.034;5.158;2023-10-31T06:03:36;2.33;;;1.57;;
16669;SDS011;8448;52.034;5.158;2023-10-31T06:06:06;3.90;;;1.67;;
16669;SDS011;8448;52.034;5.158;2023-10-31T06:08:33;1.87;;;1.20;;
16669;SDS011;8448;52.034;5.158;2023-10-31T06:11:00;3.57;;;1.40;;
16669;SDS011;8448;52.034;5.158;2023-10-31T06:13:29;3.73;;;1.60;;
16669;SDS011;8448;52.034;5.158;2023-10-31T06:15:56;2.27;;;1.20;;
16669;SDS011;8448;52.034;5.158;2023-10-31T06:18:24;2.47;;;1.33;;
16669;SDS011;8448;52.034;5.158;2023-10-31T06:20:51;3.03;;;1.20;;
16669;SDS011;8448;52.034;5.158;2023-10-31T06:23:20;3.17;;;1.30;;
16669;SDS011;8448;52.034;5.158;2023-10-31T06:25:47;3.37;;;1.10;;
16669;SDS011;8448;52.034;5.158;2023-10-31T06:28:15;1.57;;;0.93;;
16669;SDS011;8448;52.034;5.158;2023-10-31T06:30:42;3.13;;;1.20;;
16669;SDS011;8448;52.034;5.158;2023-10-31T06:33:10;2.40;;;1.00;;
16669;SDS011;8448;52.034;5.158;2023-10-31T06:35:37;2.80;;;0.90;;
16669;SDS011;8448;52.034;5.158;2023-10-31T06:38:06;3.33;;;1.07;;
16669;SDS011;8448;52.034;5.158;2023-10-31T06:40:41;2.73;;;1.00;;
16669;SDS011;8448;52.034;5.158;2023-10-31T06:43:08;3.63;;;0.77;;
16669;SDS011;8448;52.034;5.158;2023-10-31T06:45:36;1.83;;;0.90;;
16669;SDS011;8448;52.034;5.158;2023-10-31T06:48:03;2.10;;;1.00;;
16669;SDS011;8448;52.034;5.158;2023-10-31T06:50:32;2.73;;;1.10;;
16669;SDS011;8448;52.034;5.158;2023-10-31T06:52:59;1.93;;;0.90;;
16669;SDS011;8448;52.034;5.158;2023-10-31T06:55:26;4.77;;;1.10;;
16669;SDS011;8448;52.034;5.158;2023-10-31T06:57:55;4.10;;;1.37;;
16669;SDS011;8448;52.034;5.158;2023-10-31T07:00:22;1.70;;;1.17;;
16669;SDS011;8448;52.034;5.158;2023-10-31T07:02:50;3.20;;;1.17;;
16669;SDS011;8448;52.034;5.158;2023-10-31T07:05:17;2.30;;;1.30;;
16669;SDS011;8448;52.034;5.158;2023-10-31T07:07:45;2.97;;;1.50;;
16669;SDS011;8448;52.034;5.158;2023-10-31T07:10:15;2.40;;;1.40;;
16669;SDS011;8448;52.034;5.158;2023-10-31T07:12:43;3.13;;;1.53;;
16669;SDS011;8448;52.034;5.158;2023-10-31T07:15:14;2.83;;;1.60;;
16669;SDS011;8448;52.034;5.158;2023-10-31T07:17:42;3.60;;;1.60;;
16669;SDS011;8448;52.034;5.158;2023-10-31T07:20:09;3.30;;;1.77;;
16669;SDS011;8448;52.034;5.158;2023-10-31T07:22:36;3.80;;;1.53;;
16669;SDS011;8448;52.034;5.158;2023-10-31T07:25:05;3.33;;;1.80;;
16669;SDS011;8448;52.034;5.158;2023-10-31T07:27:33;5.07;;;1.80;;
16669;SDS011;8448;52.034;5.158;2023-10-31T07:30:00;4.70;;;1.90;;
16669;SDS011;8448;52.034;5.158;2023-10-31T07:32:29;2.90;;;1.93;;
16669;SDS011;8448;52.034;5.158;2023-10-31T07:34:56;4.27;;;2.60;;
16669;SDS011;8448;52.034;5.158;2023-10-31T07:37:24;4.37;;;2.60;;
16669;SDS011;8448;52.034;5.158;2023-10-31T07:39:51;7.60;;;3.50;;
16669;SDS011;8448;52.034;5.158;2023-10-31T07:42:18;7.30;;;3.73;;
16669;SDS011;8448;52.034;5.158;2023-10-31T07:44:46;6.13;;;3.50;;
16669;SDS011;8448;52.034;5.158;2023-10-31T07:47:14;6.30;;;3.13;;
16669;SDS011;8448;52.034;5.158;2023-10-31T07:49:43;4.43;;;3.37;;
16669;SDS011;8448;52.034;5.158;2023-10-31T07:52:11;5.90;;;3.80;;
16669;SDS011;8448;52.034;5.158;2023-10-31T07:54:38;7.60;;;3.97;;
16669;SDS011;8448;52.034;5.158;2023-10-31T07:57:06;8.60;;;4.70;;
16669;SDS011;8448;52.034;5.158;2023-10-31T07:59:34;9.57;;;4.07;;
16669;SDS011;8448;52.034;5.158;2023-10-31T08:02:01;6.00;;;3.90;;
16669;SDS011;8448;52.034;5.158;2023-10-31T08:04:29;7.23;;;4.27;;
16669;SDS011;8448;52.034;5.158;2023-10-31T08:06:58;7.00;;;4.67;;
16669;SDS011;8448;52.034;5.158;2023-10-31T08:09:25;6.90;;;4.67;;
16669;SDS011;8448;52.034;5.158;2023-10-31T08:11:53;7.33;;;4.33;;
16669;SDS011;8448;52.034;5.158;2023-10-31T08:14:21;9.70;;;4.27;;
16669;SDS011;8448;52.034;5.158;2023-10-31T08:16:48;7.70;;;4.67;;
16669;SDS011;8448;52.034;5.158;2023-10-31T08:19:15;6.80;;;4.50;;
16669;SDS011;8448;52.034;5.158;2023-10-31T08:21:43;5.80;;;3.90;;
16669;SDS011;8448;52.034;5.158;2023-10-31T08:24:16;6.77;;;4.50;;
16669;SDS011;8448;52.034;5.158;2023-10-31T08:26:44;7.20;;;4.13;;
16669;SDS011;8448;52.034;5.158;2023-10-31T08:29:14;7.40;;;3.97;;
16669;SDS011;8448;52.034;5.158;2023-10-31T08:31:41;7.50;;;4.50;;
16669;SDS011;8448;52.034;5.158;2023-10-31T08:34:08;6.20;;;4.53;;
16669;SDS011;8448;52.034;5.158;2023-10-31T08:36:36;8.17;;;4.67;;
16669;SDS011;8448;52.034;5.158;2023-10-31T08:39:04;9.03;;;4.70;;
16669;SDS011;8448;52.034;5.158;2023-10-31T08:41:33;9.50;;;4.70;;
16669;SDS011;8448;52.034;5.158;2023-10-31T08:44:00;9.17;;;4.60;;
16669;SDS011;8448;52.034;5.158;2023-10-31T08:46:28;6.07;;;4.07;;
16669;SDS011;8448;52.034;5.158;2023-10-31T08:48:56;6.47;;;4.23;;
16669;SDS011;8448;52.034;5.158;2023-10-31T08:51:23;9.37;;;4.87;;
16669;SDS011;8448;52.034;5.158;2023-10-31T08:53:50;6.87;;;4.80;;
16669;SDS011;8448;52.034;5.158;2023-10-31T08:56:17;8.23;;;5.20;;
16669;SDS011;8448;52.034;5.158;2023-10-31T08:58:46;9.50;;;5.33;;
16669;SDS011;8448;52.034;5.158;2023-10-31T09:01:14;11.03;;;6.00;;
16669;SDS011;8448;52.034;5.158;2023-10-31T09:03:41;10.77;;;5.73;;
16669;SDS011;8448;52.034;5.158;2023-10-31T09:06:09;10.87;;;6.40;;
16669;SDS011;8448;52.034;5.158;2023-10-31T09:08:37;9.93;;;5.63;;
16669;SDS011;8448;52.034;5.158;2023-10-31T09:11:04;12.17;;;6.27;;
16669;SDS011;8448;52.034;5.158;2023-10-31T09:13:32;9.70;;;5.80;;
16669;SDS011;8448;52.034;5.158;2023-10-31T09:16:01;9.10;;;6.03;;
16669;SDS011;8448;52.034;5.158;2023-10-31T09:18:28;11.33;;;6.17;;
16669;SDS011;8448;52.034;5.158;2023-10-31T09:20:56;11.37;;;6.03;;
16669;SDS011;8448;52.034;5.158;2023-10-31T09:23:23;11.83;;;6.60;;
16669;SDS011;8448;52.034;5.158;2023-10-31T09:25:51;11.87;;;6.63;;
16669;SDS011;8448;52.034;5.158;2023-10-31T09:28:19;13.40;;;6.77;;
16669;SDS011;8448;52.034;5.158;2023-10-31T09:30:47;10.30;;;6.10;;
16669;SDS011;8448;52.034;5.158;2023-10-31T09:33:16;9.73;;;5.90;;
16669;SDS011;8448;52.034;5.158;2023-10-31T09:35:43;9.73;;;5.80;;
16669;SDS011;8448;52.034;5.158;2023-10-31T09:38:10;10.53;;;6.20;;
16669;SDS011;8448;52.034;5.158;2023-10-31T09:40:38;12.40;;;6.60;;
16669;SDS011;8448;52.034;5.158;2023-10-31T09:43:05;11.97;;;7.20;;
16669;SDS011;8448;52.034;5.158;2023-10-31T09:45:33;11.53;;;7.10;;
16669;SDS011;8448;52.034;5.158;2023-10-31T09:48:01;14.57;;;8.20;;
16669;SDS011;8448;52.034;5.158;2023-10-31T09:50:29;13.60;;;7.77;;
16669;SDS011;8448;52.034;5.158;2023-10-31T09:52:57;13.90;;;8.20;;
16669;SDS011;8448;52.034;5.158;2023-10-31T09:55:25;14.73;;;7.00;;
16669;SDS011;8448;52.034;5.158;2023-10-31T09:57:52;13.20;;;8.07;;
16669;SDS011;8448;52.034;5.158;2023-10-31T10:00:20;11.80;;;7.47;;
16669;SDS011;8448;52.034;5.158;2023-10-31T10:02:48;13.17;;;7.40;;
16669;SDS011;8448;52.034;5.158;2023-10-31T10:05:16;15.50;;;7.70;;
16669;SDS011;8448;52.034;5.158;2023-10-31T10:07:45;11.37;;;7.17;;
16669;SDS011;8448;52.034;5.158;2023-10-31T10:10:12;12.17;;;7.13;;
16669;SDS011;8448;52.034;5.158;2023-10-31T10:12:41;13.43;;;6.80;;
16669;SDS011;8448;52.034;5.158;2023-10-31T10:15:09;12.80;;;7.20;;
16669;SDS011;8448;52.034;5.158;2023-10-31T10:17:37;10.87;;;6.03;;
16669;SDS011;8448;52.034;5.158;2023-10-31T10:20:05;11.10;;;6.37;;
16669;SDS011;8448;52.034;5.158;2023-10-31T10:22:36;9.67;;;5.40;;
16669;SDS011;8448;52.034;5.158;2023-10-31T10:25:06;5.60;;;4.03;;
16669;SDS011;8448;52.034;5.158;2023-10-31T10:27:34;7.13;;;4.10;;
16669;SDS011;8448;52.034;5.158;2023-10-31T10:30:01;7.57;;;4.00;;
16669;SDS011;8448;52.034;5.158;2023-10-31T10:32:29;6.00;;;3.17;;
16669;SDS011;8448;52.034;5.158;2023-10-31T10:34:56;8.20;;;3.55;;
16669;SDS011;8448;52.034;5.158;2023-10-31T10:37:24;8.87;;;3.50;;
16669;SDS011;8448;52.034;5.158;2023-10-31T10:39:53;6.65;;;3.10;;
16669;SDS011;8448;52.034;5.158;2023-10-31T10:42:27;8.70;;;3.30;;
16669;SDS011;8448;52.034;5.158;2023-10-31T10:45:01;6.68;;;2.78;;
16669;SDS011;8448;52.034;5.158;2023-10-31T10:47:30;4.85;;;2.70;;
16669;SDS011;8448;52.034;5.158;2023-10-31T10:49:58;6.47;;;2.50;;
16669;SDS011;8448;52.034;5.158;2023-10-31T10:52:28;3.88;;;1.80;;
16669;SDS011;8448;52.034;5.158;2023-10-31T10:55:01;5.72;;;2.20;;
16669;SDS011;8448;52.034;5.158;2023-10-31T10:57:37;5.97;;;2.58;;
16669;SDS011;8448;52.034;5.158;2023-10-31T11:00:06;8.23;;;3.00;;
16669;SDS011;8448;52.034;5.158;2023-10-31T11:02:38;4.55;;;3.22;;
16669;SDS011;8448;52.034;5.158;2023-10-31T11:05:07;6.38;;;3.30;;
16669;SDS011;8448;52.034;5.158;2023-10-31T11:07:36;8.60;;;3.50;;
16669;SDS011;8448;52.034;5.158;2023-10-31T11:10:04;7.03;;;3.63;;
16669;SDS011;8448;52.034;5.158;2023-10-31T11:12:32;5.88;;;3.50;;
16669;SDS011;8448;52.034;5.158;2023-10-31T11:15:02;7.43;;;3.38;;
16669;SDS011;8448;52.034;5.158;2023-10-31T11:17:31;6.97;;;3.67;;
16669;SDS011;8448;52.034;5.158;2023-10-31T11:20:01;7.18;;;4.10;;
16669;SDS011;8448;52.034;5.158;2023-10-31T11:22:36;7.53;;;4.57;;
16669;SDS011;8448;52.034;5.158;2023-10-31T11:25:06;8.55;;;5.10;;
16669;SDS011;8448;52.034;5.158;2023-10-31T11:27:34;8.85;;;5.45;;
16669;SDS011;8448;52.034;5.158;2023-10-31T11:30:06;8.95;;;5.75;;
16669;SDS011;8448;52.034;5.158;2023-10-31T11:32:36;11.68;;;6.30;;
16669;SDS011;8448;52.034;5.158;2023-10-31T11:35:03;15.37;;;9.53;;
16669;SDS011;8448;52.034;5.158;2023-10-31T11:37:33;15.73;;;10.50;;
16669;SDS011;8448;52.034;5.158;2023-10-31T11:42:47;15.30;;;10.57;;
16669;SDS011;8448;52.034;5.158;2023-10-31T11:45:29;14.10;;;10.17;;
16669;SDS011;8448;52.034;5.158;2023-10-31T11:47:59;19.00;;;11.20;;
16669;SDS011;8448;52.034;5.158;2023-10-31T11:50:26;18.47;;;12.07;;
16669;SDS011;8448;52.034;5.158;2023-10-31T11:53:04;19.10;;;13.90;;
16669;SDS011;8448;52.034;5.158;2023-10-31T11:55:32;20.20;;;13.03;;
16669;SDS011;8448;52.034;5.158;2023-10-31T11:58:14;26.53;;;14.10;;
16669;SDS011;8448;52.034;5.158;2023-10-31T12:00:44;17.67;;;12.20;;
16669;SDS011;8448;52.034;5.158;2023-10-31T12:03:15;19.93;;;13.03;;
16669;SDS011;8448;52.034;5.158;2023-10-31T12:05:52;19.40;;;12.60;;
16669;SDS011;8448;52.034;5.158;2023-10-31T12:08:27;19.67;;;13.50;;
16669;SDS011;8448;52.034;5.158;2023-10-31T12:11:02;21.70;;;13.40;;
16669;SDS011;8448;52.034;5.158;2023-10-31T12:13:34;22.00;;;13.97;;
16669;SDS011;8448;52.034;5.158;2023-10-31T12:16:04;22.30;;;13.83;;
16669;SDS011;8448;52.034;5.158;2023-10-31T12:18:33;20.50;;;13.57;;
16669;SDS011;8448;52.034;5.158;2023-10-31T12:21:01;23.87;;;13.57;;
16669;SDS011;8448;52.034;5.158;2023-10-31T12:23:28;20.67;;;13.30;;
16669;SDS011;8448;52.034;5.158;2023-10-31T12:25:56;23.20;;;14.17;;
16669;SDS011;8448;52.034;5.158;2023-10-31T12:28:24;22.60;;;14.53;;
16669;SDS011;8448;52.034;5.158;2023-10-31T12:30:53;29.13;;;15.43;;
16669;SDS011;8448;52.034;5.158;2023-10-31T12:33:25;22.00;;;14.60;;
16669;SDS011;8448;52.034;5.158;2023-10-31T12:35:55;22.47;;;14.47;;
16669;SDS011;8448;52.034;5.158;2023-10-31T12:38:23;24.17;;;15.73;;
16669;SDS011;8448;52.034;5.158;2023-10-31T12:40:51;28.97;;;16.20;;
16669;SDS011;8448;52.034;5.158;2023-10-31T12:43:19;22.87;;;16.40;;
16669;SDS011;8448;52.034;5.158;2023-10-31T12:45:47;26.53;;;17.20;;
16669;SDS011;8448;52.034;5.158;2023-10-31T12:48:14;26.43;;;17.63;;
16669;SDS011;8448;52.034;5.158;2023-10-31T12:50:44;26.93;;;17.40;;
16669;SDS011;8448;52.034;5.158;2023-10-31T12:53:11;27.13;;;17.57;;
16669;SDS011;8448;52.034;5.158;2023-10-31T12:55:50;30.93;;;18.87;;
16669;SDS011;8448;52.034;5.158;2023-10-31T12:58:19;32.13;;;19.37;;
16669;SDS011;8448;52.034;5.158;2023-10-31T13:00:48;25.27;;;18.43;;
16669;SDS011;8448;52.034;5.158;2023-10-31T13:03:16;29.37;;;17.87;;
16669;SDS011;8448;52.034;5.158;2023-10-31T13:05:46;25.73;;;17.40;;
16669;SDS011;8448;52.034;5.158;2023-10-31T13:08:14;24.30;;;16.47;;
16669;SDS011;8448;52.034;5.158;2023-10-31T13:10:41;21.53;;;15.57;;
16669;SDS011;8448;52.034;5.158;2023-10-31T13:13:09;20.60;;;14.73;;
16669;SDS011;8448;52.034;5.158;2023-10-31T13:15:37;23.13;;;16.07;;
16669;SDS011;8448;52.034;5.158;2023-10-31T13:18:04;23.40;;;16.07;;
16669;SDS011;8448;52.034;5.158;2023-10-31T13:20:35;23.33;;;16.37;;
16669;SDS011;8448;52.034;5.158;2023-10-31T13:23:04;24.13;;;16.50;;
16669;SDS011;8448;52.034;5.158;2023-10-31T13:25:32;25.23;;;16.77;;
16669;SDS011;8448;52.034;5.158;2023-10-31T13:27:59;25.00;;;15.90;;
16669;SDS011;8448;52.034;5.158;2023-10-31T13:30:29;24.40;;;15.40;;
16669;SDS011;8448;52.034;5.158;2023-10-31T13:32:56;19.20;;;14.40;;
16669;SDS011;8448;52.034;5.158;2023-10-31T13:35:24;19.23;;;13.93;;
16669;SDS011;8448;52.034;5.158;2023-10-31T13:37:51;17.77;;;13.53;;
16669;SDS011;8448;52.034;5.158;2023-10-31T13:40:19;18.63;;;13.03;;
16669;SDS011;8448;52.034;5.158;2023-10-31T13:42:48;25.27;;;13.23;;
16669;SDS011;8448;52.034;5.158;2023-10-31T13:45:15;18.13;;;12.73;;
16669;SDS011;8448;52.034;5.158;2023-10-31T13:47:42;18.97;;;13.30;;
16669;SDS011;8448;52.034;5.158;2023-10-31T13:50:10;17.93;;;12.63;;
16669;SDS011;8448;52.034;5.158;2023-10-31T13:52:37;19.80;;;14.37;;
16669;SDS011;8448;52.034;5.158;2023-10-31T13:55:05;21.73;;;14.10;;
16669;SDS011;8448;52.034;5.158;2023-10-31T13:57:34;21.20;;;14.00;;
16669;SDS011;8448;52.034;5.158;2023-10-31T14:00:01;20.37;;;13.80;;
16669;SDS011;8448;52.034;5.158;2023-10-31T14:02:38;20.50;;;13.53;;
16669;SDS011;8448;52.034;5.158;2023-10-31T14:05:06;21.07;;;14.50;;
16669;SDS011;8448;52.034;5.158;2023-10-31T14:07:34;21.00;;;14.40;;
16669;SDS011;8448;52.034;5.158;2023-10-31T14:10:01;19.70;;;13.80;;
16669;SDS011;8448;52.034;5.158;2023-10-31T14:12:29;21.80;;;14.23;;
16669;SDS011;8448;52.034;5.158;2023-10-31T14:14:57;26.30;;;15.17;;
16669;SDS011;8448;52.034;5.158;2023-10-31T14:17:25;25.73;;;17.07;;
16669;SDS011;8448;52.034;5.158;2023-10-31T14:19:52;25.47;;;18.83;;
16669;SDS011;8448;52.034;5.158;2023-10-31T14:22:20;27.77;;;19.43;;
16669;SDS011;8448;52.034;5.158;2023-10-31T14:24:47;28.67;;;20.20;;
16669;SDS011;8448;52.034;5.158;2023-10-31T14:27:14;28.30;;;19.13;;
16669;SDS011;8448;52.034;5.158;2023-10-31T14:29:42;26.23;;;19.77;;
16669;SDS011;8448;52.034;5.158;2023-10-31T14:32:10;28.23;;;19.37;;
16669;SDS011;8448;52.034;5.158;2023-10-31T14:34:38;26.47;;;19.20;;
16669;SDS011;8448;52.034;5.158;2023-10-31T14:37:05;26.33;;;19.07;;
16669;SDS011;8448;52.034;5.158;2023-10-31T14:39:32;24.33;;;18.90;;
16669;SDS011;8448;52.034;5.158;2023-10-31T14:42:00;26.40;;;18.33;;
16669;SDS011;8448;52.034;5.158;2023-10-31T14:44:27;26.47;;;18.83;;
16669;SDS011;8448;52.034;5.158;2023-10-31T14:46:55;24.63;;;17.67;;
16669;SDS011;8448;52.034;5.158;2023-10-31T14:49:24;26.30;;;18.47;;
16669;SDS011;8448;52.034;5.158;2023-10-31T14:51:51;24.23;;;17.43;;
16669;SDS011;8448;52.034;5.158;2023-10-31T14:54:18;26.73;;;17.37;;
16669;SDS011;8448;52.034;5.158;2023-10-31T14:56:46;26.93;;;17.60;;
16669;SDS011;8448;52.034;5.158;2023-10-31T14:59:13;23.10;;;16.70;;